createdAt,value
2018-07-06T00:00:00.359Z,99.99
2018-07-06T00:01:00.359Z,99.99
2018-07-06T00:02:00.332Z,99.99
2018-07-06T00:03:00.319Z,99.99
2018-07-06T00:04:00.331Z,99.99
2018-07-06T00:05:00.297Z,99.99
2018-07-06T00:06:00.287Z,99.99
2018-07-06T00:07:00.268Z,99.99
2018-07-06T00:08:00.259Z,99.99
2018-07-06T00:09:00.248Z,99.99
2018-07-06T00:10:00.236Z,99.99
2018-07-06T00:11:00.248Z,99.99
2018-07-06T00:12:00.204Z,99.99
2018-07-06T00:13:00.200Z,99.99
2018-07-06T00:14:00.191Z,99.99
2018-07-06T00:15:00.172Z,99.99
2018-07-06T00:16:00.159Z,99.99
2018-07-06T00:17:00.140Z,99.99
2018-07-06T00:18:00.159Z,99.99
2018-07-06T00:19:00.120Z,99.99
2018-07-06T00:20:00.106Z,99.99
2018-07-06T00:21:00.100Z,99.99
2018-07-06T00:22:00.081Z,99.99
2018-07-06T00:23:00.804Z,99.99
2018-07-06T00:24:00.059Z,99.99
2018-07-06T00:25:00.049Z,99.99
2018-07-06T00:26:00.030Z,99.99
2018-07-06T00:27:00.037Z,99.99
2018-07-06T00:28:00.015Z,99.99
2018-07-06T00:28:59.991Z,99.99
2018-07-06T00:29:59.982Z,99.99
2018-07-06T00:30:59.966Z,99.99
2018-07-06T00:31:59.956Z,99.99
2018-07-06T00:32:59.967Z,99.99
2018-07-06T00:33:59.930Z,99.99
2018-07-06T00:34:59.920Z,99.99
2018-07-06T00:35:59.908Z,99.99
2018-07-06T00:36:59.895Z,99.99
2018-07-06T00:37:59.885Z,99.99
2018-07-06T00:38:59.891Z,99.99
2018-07-06T00:39:59.850Z,99.99
2018-07-06T00:40:59.840Z,99.99
2018-07-06T00:41:59.836Z,99.99
2018-07-06T00:42:59.826Z,99.99
2018-07-06T00:43:59.812Z,99.99
2018-07-06T00:44:59.795Z,99.99
2018-07-06T00:45:59.783Z,99.99
2018-07-06T00:46:59.774Z,99.99
2018-07-06T00:47:59.754Z,99.99
2018-07-06T00:48:59.745Z,99.99
2018-07-06T00:49:59.741Z,99.99
2018-07-06T00:50:59.719Z,99.99
2018-07-06T00:51:59.709Z,99.99
2018-07-06T00:52:59.700Z,99.99
2018-07-06T00:53:59.687Z,99.99
2018-07-06T00:54:59.688Z,99.99
2018-07-06T00:55:59.655Z,99.99
2018-07-06T00:56:59.648Z,99.99
2018-07-06T00:57:59.639Z,99.99
2018-07-06T00:58:59.616Z,99.99
2018-07-06T00:59:59.613Z,99.99
2018-07-06T01:00:59.601Z,99.99
2018-07-06T01:01:59.697Z,99.99
2018-07-06T01:02:59.572Z,99.99
2018-07-06T01:03:59.558Z,99.99
2018-07-06T01:04:59.552Z,99.99
2018-07-06T01:05:59.529Z,99.99
2018-07-06T01:06:59.523Z,99.99
2018-07-06T01:07:59.594Z,99.99
2018-07-06T01:08:59.497Z,99.99
2018-07-06T01:09:59.479Z,99.99
2018-07-06T01:10:59.479Z,99.99
2018-07-06T01:11:59.479Z,99.99
2018-07-06T01:12:59.461Z,99.99
2018-07-06T01:13:59.450Z,99.99
2018-07-06T01:14:59.420Z,99.99
2018-07-06T01:15:59.408Z,99.99
2018-07-06T01:16:59.404Z,99.99
2018-07-06T01:17:59.401Z,99.99
2018-07-06T01:18:59.373Z,99.99
2018-07-06T01:19:59.367Z,99.99
2018-07-06T01:20:59.372Z,99.99
2018-07-06T01:21:59.336Z,99.99
2018-07-06T01:22:59.352Z,99.99
2018-07-06T01:23:59.335Z,99.99
2018-07-06T01:24:59.294Z,99.99
2018-07-06T01:25:59.309Z,99.99
2018-07-06T01:26:59.272Z,99.99
2018-07-06T01:27:59.265Z,99.99
2018-07-06T01:28:59.259Z,99.99
2018-07-06T01:29:59.243Z,99.99
2018-07-06T01:30:59.233Z,99.99
2018-07-06T01:31:59.224Z,99.99
2018-07-06T01:32:59.195Z,99.99
2018-07-06T01:33:59.192Z,99.99
2018-07-06T01:34:59.172Z,99.99
2018-07-06T01:35:59.173Z,99.99
2018-07-06T01:36:59.153Z,99.99
2018-07-06T01:37:59.163Z,99.99
2018-07-06T01:38:59.134Z,99.99
2018-07-06T01:39:59.108Z,99.99
2018-07-06T01:40:59.112Z,99.99
2018-07-06T01:41:59.096Z,99.99
2018-07-06T01:42:59.074Z,99.99
2018-07-06T01:43:59.093Z,99.99
2018-07-06T01:44:59.054Z,99.99
2018-07-06T01:45:59.045Z,99.99
2018-07-06T01:46:59.022Z,99.99
2018-07-06T01:47:59.022Z,99.99
2018-07-06T01:48:58.997Z,99.99
2018-07-06T01:49:58.993Z,99.99
2018-07-06T01:50:58.971Z,99.99
2018-07-06T01:51:58.975Z,99.99
2018-07-06T01:52:58.946Z,99.99
2018-07-06T01:53:58.937Z,99.99
2018-07-06T01:54:58.915Z,99.99
2018-07-06T01:55:58.923Z,99.99
2018-07-06T01:56:58.914Z,99.99
2018-07-06T01:57:58.895Z,99.99
2018-07-06T01:58:58.870Z,99.99
2018-07-06T01:59:58.863Z,99.99
2018-07-06T02:00:58.846Z,99.99
2018-07-06T02:01:58.853Z,99.99
2018-07-06T02:02:58.831Z,99.99
2018-07-06T02:03:58.816Z,99.99
2018-07-06T02:04:58.797Z,99.99
2018-07-06T02:05:58.796Z,99.99
2018-07-06T02:06:58.786Z,99.99
2018-07-06T02:07:58.755Z,99.99
2018-07-06T02:08:58.736Z,99.99
2018-07-06T02:09:58.748Z,99.99
2018-07-06T02:10:58.736Z,99.99
2018-07-06T02:11:58.714Z,99.99
2018-07-06T02:12:58.697Z,99.99
2018-07-06T02:13:58.679Z,99.99
2018-07-06T02:14:58.664Z,99.99
2018-07-06T02:15:58.657Z,99.99
2018-07-06T02:16:58.641Z,99.99
2018-07-06T02:17:58.624Z,99.99
2018-07-06T02:18:58.620Z,99.99
2018-07-06T02:19:58.604Z,99.99
2018-07-06T02:20:58.585Z,99.99
2018-07-06T02:21:58.576Z,99.99
2018-07-06T02:22:58.566Z,99.99
2018-07-06T02:23:58.569Z,99.99
2018-07-06T02:24:58.537Z,99.99
2018-07-06T02:25:58.519Z,99.99
2018-07-06T02:26:58.513Z,99.99
2018-07-06T02:27:58.497Z,99.99
2018-07-06T02:28:58.483Z,99.99
2018-07-06T02:29:58.472Z,99.99
2018-07-06T02:30:58.471Z,99.99
2018-07-06T02:31:58.446Z,99.99
2018-07-06T02:32:58.435Z,99.99
2018-07-06T02:33:58.429Z,99.99
2018-07-06T02:34:58.410Z,99.99
2018-07-06T02:35:58.398Z,99.99
2018-07-06T02:36:58.385Z,99.99
2018-07-06T02:37:58.375Z,99.99
2018-07-06T02:38:58.350Z,99.99
2018-07-06T02:39:58.340Z,99.99
2018-07-06T02:40:58.332Z,99.99
2018-07-06T02:41:58.322Z,99.99
2018-07-06T02:42:58.313Z,99.99
2018-07-06T02:43:58.297Z,99.99
2018-07-06T02:44:58.294Z,99.99
2018-07-06T02:45:58.265Z,99.99
2018-07-06T02:46:58.271Z,99.99
2018-07-06T02:47:58.249Z,99.99
2018-07-06T02:48:58.233Z,99.99
2018-07-06T02:49:58.220Z,99.99
2018-07-06T02:50:58.201Z,99.99
2018-07-06T02:51:58.195Z,99.99
2018-07-06T02:52:58.179Z,99.99
2018-07-06T02:53:58.176Z,99.99
2018-07-06T02:54:58.157Z,99.99
2018-07-06T02:55:58.146Z,99.99
2018-07-06T02:56:58.125Z,99.99
2018-07-06T02:57:58.112Z,99.99
2018-07-06T02:58:58.121Z,99.99
2018-07-06T02:59:58.091Z,99.99
2018-07-06T03:00:58.073Z,99.99
2018-07-06T03:01:58.061Z,99.99
2018-07-06T03:02:58.049Z,99.99
2018-07-06T03:03:58.051Z,99.99
2018-07-06T03:04:58.036Z,99.99
2018-07-06T03:05:58.012Z,99.99
2018-07-06T03:06:58.009Z,99.99
2018-07-06T03:07:57.991Z,99.99
2018-07-06T03:08:57.974Z,99.99
2018-07-06T03:09:57.962Z,99.99
2018-07-06T03:10:57.956Z,99.99
2018-07-06T03:11:57.935Z,99.99
2018-07-06T03:12:57.923Z,99.99
2018-07-06T03:13:57.907Z,99.99
2018-07-06T03:14:57.894Z,99.99
2018-07-06T03:15:57.878Z,99.99
2018-07-06T03:16:57.869Z,99.99
2018-07-06T03:17:57.864Z,99.99
2018-07-06T03:18:57.850Z,99.99
2018-07-06T03:19:57.824Z,99.99
2018-07-06T03:20:57.820Z,99.99
2018-07-06T03:21:57.811Z,99.99
2018-07-06T03:22:57.802Z,99.99
2018-07-06T03:23:57.789Z,99.99
2018-07-06T03:24:57.766Z,99.99
2018-07-06T03:25:57.753Z,99.99
2018-07-06T03:26:57.743Z,99.99
2018-07-06T03:27:57.840Z,99.99
2018-07-06T03:28:57.733Z,99.99
2018-07-06T03:29:57.694Z,99.99
2018-07-06T03:30:57.698Z,99.99
2018-07-06T03:31:57.675Z,99.99
2018-07-06T03:32:57.679Z,99.99
2018-07-06T03:33:57.650Z,99.99
2018-07-06T03:34:57.643Z,99.99
2018-07-06T03:35:57.623Z,99.99
2018-07-06T03:36:57.617Z,99.99
2018-07-06T03:37:57.598Z,99.99
2018-07-06T03:38:57.579Z,99.99
2018-07-06T03:39:57.572Z,99.99
2018-07-06T03:40:57.566Z,99.99
2018-07-06T03:41:57.544Z,99.99
2018-07-06T03:42:57.538Z,99.99
2018-07-06T03:43:57.527Z,99.99
2018-07-06T03:44:57.515Z,99.99
2018-07-06T03:45:57.500Z,99.99
2018-07-06T03:46:57.483Z,99.99
2018-07-06T03:47:57.499Z,99.99
2018-07-06T03:48:57.457Z,99.99
2018-07-06T03:49:57.452Z,99.99
2018-07-06T03:50:57.435Z,99.99
2018-07-06T03:51:57.419Z,99.99
2018-07-06T03:52:57.411Z,99.99
2018-07-06T03:53:57.396Z,99.99
2018-07-06T03:54:57.439Z,99.99
2018-07-06T03:55:57.367Z,99.99
2018-07-06T03:56:57.358Z,99.99
2018-07-06T03:57:57.352Z,99.99
2018-07-06T03:58:57.329Z,99.99
2018-07-06T03:59:57.316Z,99.99
2018-07-06T04:00:57.314Z,99.99
2018-07-06T04:01:57.298Z,99.99
2018-07-06T04:02:57.278Z,99.99
2018-07-06T04:03:57.259Z,99.99
2018-07-06T04:04:57.250Z,99.99
2018-07-06T04:05:57.240Z,99.99
2018-07-06T04:06:57.233Z,99.99
2018-07-06T04:07:57.214Z,99.99
2018-07-06T04:08:57.201Z,99.99
2018-07-06T04:09:57.188Z,99.99
2018-07-06T04:10:57.182Z,99.99
2018-07-06T04:11:57.163Z,99.99
2018-07-06T04:12:57.150Z,99.99
2018-07-06T04:13:57.143Z,99.99
2018-07-06T04:14:57.130Z,99.99
2018-07-06T04:15:57.152Z,99.99
2018-07-06T04:16:57.101Z,99.99
2018-07-06T04:17:57.092Z,99.99
2018-07-06T04:18:57.075Z,99.99
2018-07-06T04:19:57.060Z,99.99
2018-07-06T04:20:57.054Z,99.99
2018-07-06T04:21:57.034Z,99.99
2018-07-06T04:22:57.027Z,99.99
2018-07-06T04:23:57.011Z,99.99
2018-07-06T04:24:57.005Z,99.99
2018-07-06T04:25:56.988Z,99.99
2018-07-06T04:26:56.971Z,99.99
2018-07-06T04:27:56.957Z,99.99
2018-07-06T04:28:56.944Z,99.99
2018-07-06T04:29:56.929Z,99.99
2018-07-06T04:30:56.917Z,99.99
2018-07-06T04:31:56.901Z,99.99
2018-07-06T04:32:56.892Z,99.99
2018-07-06T04:33:56.888Z,99.99
2018-07-06T04:34:56.873Z,99.99
2018-07-06T04:35:56.860Z,99.99
2018-07-06T04:36:56.847Z,99.99
2018-07-06T04:37:56.834Z,99.99
2018-07-06T04:38:56.824Z,99.99
2018-07-06T04:39:56.808Z,99.99
2018-07-06T04:40:56.799Z,99.99
2018-07-06T04:41:56.785Z,99.99
2018-07-06T04:42:56.769Z,99.99
2018-07-06T04:43:56.757Z,99.99
2018-07-06T04:44:56.744Z,99.99
2018-07-06T04:45:56.741Z,99.99
2018-07-06T04:46:56.716Z,99.99
2018-07-06T04:47:56.709Z,99.99
2018-07-06T04:48:56.696Z,99.99
2018-07-06T04:49:56.691Z,99.99
2018-07-06T04:50:56.707Z,99.99
2018-07-06T04:51:56.662Z,99.99
2018-07-06T04:52:56.649Z,99.99
2018-07-06T04:53:56.636Z,99.99
2018-07-06T04:54:56.617Z,99.99
2018-07-06T04:55:56.610Z,99.99
2018-07-06T04:56:56.610Z,99.99
2018-07-06T04:57:56.591Z,99.99
2018-07-06T04:58:56.582Z,99.99
2018-07-06T04:59:56.590Z,99.99
2018-07-06T05:00:56.547Z,99.99
2018-07-06T05:01:56.540Z,99.99
2018-07-06T05:02:56.528Z,99.99
2018-07-06T05:03:56.515Z,99.99
2018-07-06T05:04:56.509Z,99.99
2018-07-06T05:05:56.509Z,99.99
2018-07-06T05:06:56.483Z,99.99
2018-07-06T05:07:56.461Z,99.99
2018-07-06T05:08:56.460Z,99.99
2018-07-06T05:09:56.438Z,99.99
2018-07-06T05:10:56.432Z,99.99
2018-07-06T05:11:56.415Z,99.99
2018-07-06T05:12:56.428Z,99.99
2018-07-06T05:13:56.393Z,99.99
2018-07-06T05:14:56.403Z,99.99
2018-07-06T05:15:56.368Z,99.99
2018-07-06T05:16:56.359Z,99.99
2018-07-06T05:17:56.368Z,99.99
2018-07-06T05:18:56.368Z,99.99
2018-07-06T05:19:56.320Z,99.99
2018-07-06T05:20:56.327Z,99.99
2018-07-06T05:21:56.301Z,99.99
2018-07-06T05:22:56.289Z,99.99
2018-07-06T05:23:56.292Z,99.99
2018-07-06T05:24:56.266Z,99.99
2018-07-06T05:25:56.254Z,99.99
2018-07-06T05:26:56.241Z,99.99
2018-07-06T05:27:56.250Z,99.99
2018-07-06T05:28:56.235Z,99.99
2018-07-06T05:29:56.218Z,99.99
2018-07-06T05:30:56.211Z,99.99
2018-07-06T05:31:56.233Z,99.99
2018-07-06T05:32:56.180Z,99.99
2018-07-06T05:33:56.162Z,99.99
2018-07-06T05:34:56.159Z,99.99
2018-07-06T05:35:56.145Z,99.99
2018-07-06T05:36:56.130Z,99.99
2018-07-06T05:37:56.217Z,99.99
2018-07-06T05:38:56.101Z,99.99
2018-07-06T05:39:56.102Z,99.99
2018-07-06T05:40:56.089Z,99.99
2018-07-06T05:41:56.095Z,99.99
2018-07-06T05:42:56.085Z,99.99
2018-07-06T05:43:56.056Z,99.99
2018-07-06T05:44:56.041Z,99.99
2018-07-06T05:45:56.031Z,99.99
2018-07-06T05:46:56.021Z,99.99
2018-07-06T05:47:56.065Z,99.99
2018-07-06T05:48:55.992Z,99.99
2018-07-06T05:49:55.982Z,99.99
2018-07-06T05:50:55.979Z,99.99
2018-07-06T05:51:55.964Z,99.99
2018-07-06T05:52:55.941Z,99.99
2018-07-06T05:53:55.937Z,99.99
2018-07-06T05:54:55.927Z,99.99
2018-07-06T05:55:55.917Z,99.99
2018-07-06T05:56:55.908Z,99.99
2018-07-06T05:57:55.889Z,99.99
2018-07-06T05:58:55.881Z,99.99
2018-07-06T05:59:55.872Z,99.99
2018-07-06T06:00:55.866Z,99.99
2018-07-06T06:01:55.852Z,99.99
2018-07-06T06:02:55.841Z,99.99
2018-07-06T06:03:55.825Z,99.99
2018-07-06T06:04:55.821Z,99.99
2018-07-06T06:05:55.805Z,99.99
2018-07-06T06:06:55.790Z,99.99
2018-07-06T06:07:55.785Z,99.99
2018-07-06T06:08:55.767Z,99.99
2018-07-06T06:09:55.757Z,99.99
2018-07-06T06:10:55.754Z,99.99
2018-07-06T06:11:55.738Z,99.99
2018-07-06T06:12:55.745Z,99.99
2018-07-06T06:13:55.721Z,99.99
2018-07-06T06:14:55.725Z,99.99
2018-07-06T06:15:55.685Z,99.99
2018-07-06T06:16:55.681Z,99.99
2018-07-06T06:17:55.662Z,99.99
2018-07-06T06:18:55.662Z,99.99
2018-07-06T06:19:55.660Z,99.99
2018-07-06T06:20:55.631Z,99.99
2018-07-06T06:21:55.627Z,99.99
2018-07-06T06:22:55.637Z,99.99
2018-07-06T06:23:55.602Z,99.99
2018-07-06T06:24:55.651Z,99.99
2018-07-06T06:25:55.583Z,99.99
2018-07-06T06:26:55.589Z,99.99
2018-07-06T06:27:55.557Z,99.99
2018-07-06T06:28:55.545Z,99.99
2018-07-06T06:29:55.534Z,99.99
2018-07-06T06:30:55.528Z,99.99
2018-07-06T06:31:55.515Z,99.99
2018-07-06T06:32:55.579Z,99.99
2018-07-06T06:33:55.517Z,99.99
2018-07-06T06:34:55.487Z,99.99
2018-07-06T06:35:55.485Z,99.99
2018-07-06T06:36:55.460Z,99.99
2018-07-06T06:37:55.467Z,99.99
2018-07-06T06:38:55.439Z,99.99
2018-07-06T06:39:55.434Z,99.99
2018-07-06T06:40:55.416Z,99.99
2018-07-06T06:41:55.413Z,99.99
2018-07-06T06:42:55.403Z,99.99
2018-07-06T06:43:55.387Z,99.99
2018-07-06T06:44:55.372Z,99.99
2018-07-06T06:45:55.361Z,99.99
2018-07-06T06:46:55.355Z,99.99
2018-07-06T06:47:55.346Z,99.99
2018-07-06T06:48:55.336Z,99.99
2018-07-06T06:49:55.315Z,99.99
2018-07-06T06:50:55.310Z,99.99
2018-07-06T06:51:55.302Z,99.99
2018-07-06T06:52:55.323Z,99.99
2018-07-06T06:53:55.286Z,99.99
2018-07-06T06:54:55.261Z,99.99
2018-07-06T06:55:55.251Z,99.99
2018-07-06T06:56:55.242Z,99.99
2018-07-06T06:57:55.232Z,99.99
2018-07-06T06:58:55.226Z,99.99
2018-07-06T06:59:55.209Z,99.99
2018-07-06T07:00:55.230Z,99.99
2018-07-06T07:01:55.194Z,99.99
2018-07-06T07:02:55.181Z,99.99
2018-07-06T07:03:55.182Z,99.99
2018-07-06T07:04:55.159Z,99.99
2018-07-06T07:05:55.143Z,99.99
2018-07-06T07:06:55.142Z,99.99
2018-07-06T07:07:55.121Z,99.99
2018-07-06T07:08:55.110Z,99.99
2018-07-06T07:09:55.100Z,99.99
2018-07-06T07:10:55.098Z,99.99
2018-07-06T07:11:55.084Z,99.99
2018-07-06T07:12:55.061Z,99.99
2018-07-06T07:13:55.175Z,99.99
2018-07-06T07:14:55.060Z,99.99
2018-07-06T07:15:55.037Z,99.99
2018-07-06T07:16:55.031Z,99.99
2018-07-06T07:17:55.024Z,99.99
2018-07-06T07:18:55.008Z,99.99
2018-07-06T07:19:54.996Z,99.99
2018-07-06T07:20:54.982Z,99.99
2018-07-06T07:21:54.973Z,99.99
2018-07-06T07:22:54.966Z,99.99
2018-07-06T07:23:54.957Z,99.99
2018-07-06T07:24:54.947Z,99.99
2018-07-06T07:25:54.937Z,99.99
2018-07-06T07:26:54.925Z,99.99
2018-07-06T07:27:54.918Z,99.99
2018-07-06T07:28:54.906Z,99.99
2018-07-06T07:29:54.896Z,99.99
2018-07-06T07:30:54.893Z,99.79
2018-07-06T07:31:54.867Z,99.98
2018-07-06T07:32:54.862Z,99.99
2018-07-06T07:33:54.854Z,99.99
2018-07-06T07:34:54.848Z,99.99
2018-07-06T07:35:54.829Z,99.99
2018-07-06T07:36:54.832Z,99.89
2018-07-06T07:37:54.819Z,97.62
2018-07-06T07:38:54.814Z,94.33
2018-07-06T07:39:54.800Z,95.25
2018-07-06T07:40:54.800Z,94.86
2018-07-06T07:41:54.777Z,92.97
2018-07-06T07:42:54.778Z,94.47
2018-07-06T07:43:54.761Z,92.83
2018-07-06T07:44:54.758Z,89.87
2018-07-06T07:45:54.767Z,88.32
2018-07-06T07:46:54.743Z,84.46
2018-07-06T07:47:54.738Z,92.68
2018-07-06T07:48:54.726Z,92.44
2018-07-06T07:49:54.718Z,88.85
2018-07-06T07:50:54.713Z,90.50
2018-07-06T07:51:54.706Z,87.95
2018-07-06T07:52:54.700Z,90.41
2018-07-06T07:53:54.690Z,90.70
2018-07-06T07:54:54.687Z,91.32
2018-07-06T07:55:54.678Z,86.34
2018-07-06T07:56:54.665Z,87.79
2018-07-06T07:57:54.664Z,88.37
2018-07-06T07:58:54.658Z,90.50
2018-07-06T07:59:54.656Z,88.23
2018-07-06T08:00:54.736Z,88.67
2018-07-06T08:01:54.646Z,84.50
2018-07-06T08:02:54.623Z,89.15
2018-07-06T08:03:54.626Z,85.51
2018-07-06T08:04:54.611Z,84.74
2018-07-06T08:05:54.604Z,86.58
2018-07-06T08:06:54.594Z,84.83
2018-07-06T08:07:54.595Z,85.51
2018-07-06T08:08:54.589Z,80.57
2018-07-06T08:09:54.580Z,84.25
2018-07-06T08:10:54.585Z,85.46
2018-07-06T08:11:54.645Z,83.96
2018-07-06T08:12:54.564Z,81.25
2018-07-06T08:13:54.543Z,84.74
2018-07-06T08:14:54.540Z,81.93
2018-07-06T08:15:54.532Z,82.28
2018-07-06T08:16:54.535Z,84.79
2018-07-06T08:17:54.516Z,85.51
2018-07-06T08:18:54.512Z,86.09
2018-07-06T08:19:54.519Z,83.18
2018-07-06T08:20:54.524Z,84.25
2018-07-06T08:21:54.487Z,86.33
2018-07-06T08:22:54.493Z,83.42
2018-07-06T08:23:54.477Z,84.34
2018-07-06T08:24:54.463Z,84.14
2018-07-06T08:25:54.458Z,80.85
2018-07-06T08:26:54.449Z,79.64
2018-07-06T08:27:54.445Z,82.35
2018-07-06T08:28:54.443Z,84.78
2018-07-06T08:29:54.485Z,81.23
2018-07-06T08:30:54.439Z,81.04
2018-07-06T08:31:54.424Z,80.22
2018-07-06T08:32:54.420Z,84.72
2018-07-06T08:33:54.429Z,84.28
2018-07-06T08:34:54.413Z,81.70
2018-07-06T08:35:54.427Z,77.49
2018-07-06T08:36:54.389Z,80.85
2018-07-06T08:37:54.384Z,78.52
2018-07-06T08:38:54.379Z,76.58
2018-07-06T08:39:54.374Z,76.81
2018-07-06T08:40:54.364Z,78.21
2018-07-06T08:41:54.357Z,75.82
2018-07-06T08:42:54.356Z,76.44
2018-07-06T08:43:54.347Z,73.72
2018-07-06T08:44:54.409Z,74.73
2018-07-06T08:45:54.333Z,72.63
2018-07-06T08:46:54.337Z,71.66
2018-07-06T08:47:54.323Z,72.01
2018-07-06T08:48:54.318Z,70.49
2018-07-06T08:49:54.308Z,68.60
2018-07-06T08:50:54.307Z,70.15
2018-07-06T08:51:54.295Z,72.58
2018-07-06T08:52:54.295Z,74.93
2018-07-06T08:53:54.296Z,79.45
2018-07-06T08:54:54.288Z,77.75
2018-07-06T08:55:54.308Z,75.96
2018-07-06T08:56:54.264Z,79.84
2018-07-06T08:57:54.273Z,80.90
2018-07-06T08:58:54.273Z,81.37
2018-07-06T08:59:54.255Z,78.03
2018-07-06T09:00:54.244Z,82.35
2018-07-06T09:01:54.238Z,82.03
2018-07-06T09:02:54.241Z,82.86
2018-07-06T09:03:54.238Z,85.31
2018-07-06T09:04:54.237Z,81.30
2018-07-06T09:05:54.229Z,84.69
2018-07-06T09:06:54.214Z,81.37
2018-07-06T09:07:54.203Z,81.40
2018-07-06T09:08:54.196Z,80.77
2018-07-06T09:09:54.198Z,81.25
2018-07-06T09:10:54.189Z,77.92
2018-07-06T09:11:54.184Z,75.63
2018-07-06T09:12:54.191Z,77.24
2018-07-06T09:13:54.171Z,81.25
2018-07-06T09:14:54.162Z,79.97
2018-07-06T09:15:54.149Z,76.79
2018-07-06T09:16:54.171Z,74.86
2018-07-06T09:17:54.147Z,79.97
2018-07-06T09:18:54.129Z,73.52
2018-07-06T09:19:54.307Z,74.62
2018-07-06T09:20:54.120Z,70.45
2018-07-06T09:21:54.110Z,70.29
2018-07-06T09:22:54.130Z,68.63
2018-07-06T09:23:54.103Z,67.47
2018-07-06T09:24:54.091Z,68.87
2018-07-06T09:25:54.138Z,72.30
2018-07-06T09:26:54.082Z,73.37
2018-07-06T09:27:54.079Z,71.94
2018-07-06T09:28:54.072Z,68.41
2018-07-06T09:29:54.091Z,68.32
2018-07-06T09:30:54.075Z,71.33
2018-07-06T09:31:54.047Z,71.12
2018-07-06T09:32:54.049Z,69.24
2018-07-06T09:33:54.040Z,68.47
2018-07-06T09:34:54.037Z,68.18
2018-07-06T09:35:54.080Z,69.89
2018-07-06T09:36:54.024Z,69.57
2018-07-06T09:37:54.021Z,71.41
2018-07-06T09:38:54.017Z,72.71
2018-07-06T09:39:54.005Z,72.39
2018-07-06T09:40:53.999Z,72.13
2018-07-06T09:41:53.995Z,72.42
2018-07-06T09:42:53.986Z,72.42
2018-07-06T09:43:53.982Z,70.48
2018-07-06T09:44:53.969Z,69.15
2018-07-06T09:45:53.966Z,69.15
2018-07-06T09:46:53.963Z,69.87
2018-07-06T09:47:53.957Z,65.89
2018-07-06T09:48:53.957Z,67.05
2018-07-06T09:49:53.944Z,70.97
2018-07-06T09:50:53.978Z,65.30
2018-07-06T09:51:53.932Z,64.33
2018-07-06T09:52:53.923Z,64.07
2018-07-06T09:53:53.939Z,68.80
2018-07-06T09:54:53.917Z,63.59
2018-07-06T09:55:53.907Z,68.63
2018-07-06T09:56:53.907Z,71.68
2018-07-06T09:57:53.915Z,66.86
2018-07-06T09:58:53.903Z,65.20
2018-07-06T09:59:53.890Z,63.75
2018-07-06T10:00:53.907Z,62.00
2018-07-06T10:01:53.882Z,66.50
2018-07-06T10:02:53.875Z,71.66
2018-07-06T10:03:53.882Z,66.02
2018-07-06T10:04:53.884Z,62.32
2018-07-06T10:05:53.875Z,64.65
2018-07-06T10:06:53.855Z,68.44
2018-07-06T10:07:53.854Z,62.26
2018-07-06T10:08:53.850Z,62.54
2018-07-06T10:09:53.855Z,63.68
2018-07-06T10:10:53.883Z,68.64
2018-07-06T10:11:53.833Z,66.69
2018-07-06T10:12:53.821Z,63.13
2018-07-06T10:13:53.823Z,65.11
2018-07-06T10:14:53.817Z,64.04
2018-07-06T10:15:53.810Z,65.63
2018-07-06T10:16:53.841Z,64.88
2018-07-06T10:17:53.800Z,62.00
2018-07-06T10:18:53.797Z,66.17
2018-07-06T10:19:53.905Z,65.72
2018-07-06T10:20:53.788Z,61.87
2018-07-06T10:21:53.810Z,61.67
2018-07-06T10:22:53.779Z,63.52
2018-07-06T10:23:53.788Z,62.38
2018-07-06T10:24:53.823Z,57.32
2018-07-06T10:25:53.767Z,63.65
2018-07-06T10:26:53.769Z,58.51
2018-07-06T10:27:53.769Z,59.88
2018-07-06T10:28:53.772Z,61.05
2018-07-06T10:29:53.753Z,62.05
2018-07-06T10:30:53.755Z,60.75
2018-07-06T10:31:53.753Z,58.81
2018-07-06T10:32:53.753Z,57.51
2018-07-06T10:33:53.805Z,60.44
2018-07-06T10:34:53.746Z,63.03
2018-07-06T10:35:53.744Z,60.41
2018-07-06T10:36:53.740Z,62.06
2018-07-06T10:37:53.740Z,66.66
2018-07-06T10:38:53.735Z,64.17
2018-07-06T10:39:53.874Z,61.63
2018-07-06T10:40:53.730Z,57.71
2018-07-06T10:41:53.734Z,61.11
2018-07-06T10:42:53.728Z,61.24
2018-07-06T10:43:53.732Z,59.39
2018-07-06T10:44:53.728Z,56.61
2018-07-06T10:45:53.728Z,61.44
2018-07-06T10:46:53.725Z,63.10
2018-07-06T10:47:53.724Z,63.36
2018-07-06T10:48:53.735Z,64.26
2018-07-06T10:49:53.725Z,66.24
2018-07-06T10:50:53.725Z,61.11
2018-07-06T10:51:53.722Z,58.78
2018-07-06T10:52:53.723Z,63.97
2018-07-06T10:53:53.722Z,63.42
2018-07-06T10:54:53.722Z,58.35
2018-07-06T10:55:53.720Z,58.77
2018-07-06T10:56:53.722Z,54.40
2018-07-06T10:57:53.719Z,56.93
2018-07-06T10:58:53.720Z,57.42
2018-07-06T10:59:53.725Z,58.65
2018-07-06T11:00:53.722Z,59.63
2018-07-06T11:01:53.723Z,61.18
2018-07-06T11:02:53.732Z,62.32
2018-07-06T11:03:53.732Z,58.79
2018-07-06T11:04:53.783Z,60.44
2018-07-06T11:05:53.726Z,62.32
2018-07-06T11:06:53.720Z,59.72
2018-07-06T11:07:53.720Z,58.75
2018-07-06T11:08:53.736Z,62.90
2018-07-06T11:09:53.720Z,63.65
2018-07-06T11:10:53.716Z,62.58
2018-07-06T11:11:53.716Z,59.31
2018-07-06T11:12:53.716Z,60.08
2018-07-06T11:13:53.718Z,62.84
2018-07-06T11:14:53.716Z,57.87
2018-07-06T11:15:53.713Z,64.72
2018-07-06T11:16:53.741Z,58.00
2018-07-06T11:17:53.720Z,57.45
2018-07-06T11:18:53.770Z,54.21
2018-07-06T11:19:53.722Z,55.37
2018-07-06T11:20:53.716Z,59.88
2018-07-06T11:21:53.727Z,60.56
2018-07-06T11:22:53.723Z,59.91
2018-07-06T11:23:53.723Z,55.26
2018-07-06T11:24:53.729Z,58.38
2018-07-06T11:25:53.729Z,55.65
2018-07-06T11:26:53.735Z,55.55
2018-07-06T11:27:53.739Z,53.31
2018-07-06T11:28:53.738Z,56.75
2018-07-06T11:29:53.750Z,57.63
2018-07-06T11:30:53.747Z,54.95
2018-07-06T11:31:53.757Z,58.30
2018-07-06T11:32:53.760Z,52.44
2018-07-06T11:33:53.760Z,55.66
2018-07-06T11:34:53.767Z,56.60
2018-07-06T11:35:53.776Z,55.03
2018-07-06T11:36:53.780Z,54.81
2018-07-06T11:37:53.806Z,53.52
2018-07-06T11:38:53.788Z,54.34
2018-07-06T11:39:53.791Z,55.26
2018-07-06T11:40:53.798Z,54.52
2018-07-06T11:41:53.801Z,56.85
2018-07-06T11:42:53.830Z,56.01
2018-07-06T11:43:53.817Z,57.28
2018-07-06T11:44:53.834Z,58.91
2018-07-06T11:45:53.821Z,56.47
2018-07-06T11:46:53.827Z,59.75
2018-07-06T11:47:53.840Z,58.35
2018-07-06T11:48:53.830Z,61.14
2018-07-06T11:49:53.837Z,60.61
2018-07-06T11:50:53.830Z,59.59
2018-07-06T11:51:53.844Z,55.81
2018-07-06T11:52:53.836Z,51.44
2018-07-06T11:53:53.839Z,55.80
2018-07-06T11:54:53.859Z,50.81
2018-07-06T11:55:53.905Z,51.12
2018-07-06T11:56:53.859Z,54.30
2018-07-06T11:57:53.856Z,54.10
2018-07-06T11:58:53.856Z,51.19
2018-07-06T11:59:53.862Z,53.21
2018-07-06T12:00:53.882Z,52.63
2018-07-06T12:01:53.908Z,52.19
2018-07-06T12:02:53.872Z,56.67
2018-07-06T12:03:53.881Z,57.12
2018-07-06T12:04:53.875Z,57.42
2018-07-06T12:05:53.886Z,56.54
2018-07-06T12:06:53.875Z,59.46
2018-07-06T12:07:53.879Z,59.63
2018-07-06T12:08:53.884Z,61.67
2018-07-06T12:09:53.882Z,59.92
2018-07-06T12:10:53.891Z,60.08
2018-07-06T12:11:53.936Z,60.67
2018-07-06T12:12:53.878Z,60.64
2018-07-06T12:13:53.898Z,62.58
2018-07-06T12:14:53.885Z,64.46
2018-07-06T12:15:53.881Z,64.62
2018-07-06T12:16:53.878Z,62.28
2018-07-06T12:17:53.872Z,64.32
2018-07-06T12:18:53.908Z,61.01
2018-07-06T12:19:53.879Z,58.44
2018-07-06T12:20:53.883Z,54.75
2018-07-06T12:21:53.878Z,53.61
2018-07-06T12:22:53.876Z,54.61
2018-07-06T12:23:53.885Z,54.32
2018-07-06T12:24:53.876Z,56.99
2018-07-06T12:25:53.877Z,54.38
2018-07-06T12:26:53.875Z,54.47
2018-07-06T12:27:54.007Z,51.05
2018-07-06T12:28:53.881Z,54.77
2018-07-06T12:29:53.888Z,54.50
2018-07-06T12:30:53.891Z,55.45
2018-07-06T12:31:53.898Z,54.98
2018-07-06T12:32:53.908Z,56.77
2018-07-06T12:33:53.910Z,57.40
2018-07-06T12:34:53.907Z,58.32
2018-07-06T12:35:53.901Z,58.97
2018-07-06T12:36:53.912Z,60.31
2018-07-06T12:37:53.913Z,60.89
2018-07-06T12:38:53.914Z,58.72
2018-07-06T12:39:53.917Z,60.96
2018-07-06T12:40:53.917Z,62.48
2018-07-06T12:41:53.940Z,61.22
2018-07-06T12:42:53.920Z,61.41
2018-07-06T12:43:53.912Z,63.45
2018-07-06T12:44:53.914Z,63.42
2018-07-06T12:45:53.917Z,64.36
2018-07-06T12:46:53.917Z,63.68
2018-07-06T12:47:53.901Z,65.43
2018-07-06T12:48:53.899Z,68.60
2018-07-06T12:49:53.901Z,72.06
2018-07-06T12:50:53.901Z,76.19
2018-07-06T12:51:53.890Z,79.16